Time;durP1;ratioP1;P1;durP2;ratioP2;P2;SDS_P1;SDS_P2;PMS_P1;PMS_P2;Temp;Humidity;BMP_temperature;BMP_pressure;BME280_temperature;BME280_humidity;BME280_pressure;Samples;Min_cycle;Max_cycle;Signal;HPM_P1;HPM_P2
2022/07/07 00:02:26;;;;;;;2.22;1.80;;;26.40;48.90;;;;;;5047206;28;20521;-62
2022/07/07 00:04:53;;;;;;;3.25;2.30;;;26.40;49.00;;;;;;5047530;28;20045;-62
2022/07/07 00:07:20;;;;;;;2.53;2.30;;;26.40;49.00;;;;;;5047433;28;20044;-62
2022/07/07 00:09:48;;;;;;;2.40;1.92;;;26.40;49.00;;;;;;5046972;28;20045;-62
2022/07/07 00:12:15;;;;;;;2.72;2.25;;;26.40;49.00;;;;;;5045265;28;20049;-62
2022/07/07 00:14:43;;;;;;;3.00;2.00;;;26.40;49.00;;;;;;5047198;28;20568;-61
2022/07/07 00:17:10;;;;;;;4.22;2.63;;;26.40;49.00;;;;;;5047258;28;20536;-62
2022/07/07 00:19:38;;;;;;;3.28;1.98;;;26.40;49.10;;;;;;5046433;28;20541;-62
2022/07/07 00:22:05;;;;;;;2.50;2.13;;;26.40;49.10;;;;;;5047145;28;20072;-62
2022/07/07 00:24:33;;;;;;;2.72;1.85;;;26.40;49.10;;;;;;5045131;28;20048;-62
2022/07/07 00:27:00;;;;;;;2.58;2.05;;;26.40;49.10;;;;;;5047376;28;20098;-62
2022/07/07 00:29:27;;;;;;;2.10;1.75;;;26.40;49.10;;;;;;5046447;28;20045;-62
2022/07/07 00:31:54;;;;;;;3.25;1.92;;;26.40;49.20;;;;;;5045743;28;20480;-62
2022/07/07 00:34:21;;;;;;;2.72;2.05;;;26.40;49.20;;;;;;5046856;28;20128;-62
2022/07/07 00:36:49;;;;;;;3.17;2.00;;;26.40;49.20;;;;;;5046153;28;20053;-62
2022/07/07 00:39:16;;;;;;;2.10;1.70;;;26.40;49.20;;;;;;5046238;28;20110;-62
2022/07/07 00:41:43;;;;;;;2.60;2.20;;;26.40;49.20;;;;;;5044888;28;20472;-61
2022/07/07 00:44:14;;;;;;;2.58;2.03;;;26.40;49.20;;;;;;5046134;28;20098;-61
2022/07/07 00:46:47;;;;;;;2.45;1.77;;;26.40;49.30;;;;;;5046455;28;20106;-61
2022/07/07 00:49:17;;;;;;;2.70;2.10;;;26.40;49.20;;;;;;5044801;28;20061;-64
2022/07/07 00:51:45;;;;;;;2.78;2.03;;;26.40;49.20;;;;;;5046595;28;20448;-61
2022/07/07 00:54:12;;;;;;;2.10;1.90;;;26.40;49.20;;;;;;5046453;28;20098;-61
2022/07/07 00:56:39;;;;;;;4.13;2.33;;;26.40;49.20;;;;;;5044909;28;20521;-61
2022/07/07 00:59:08;;;;;;;3.83;2.22;;;26.40;49.20;;;;;;5046572;28;20096;-61
2022/07/07 01:01:37;;;;;;;3.85;2.50;;;26.40;49.20;;;;;;5046023;28;20123;-61
2022/07/07 01:04:07;;;;;;;2.50;2.10;;;26.40;49.60;;;;;;5046447;28;20067;-61
2022/07/07 01:06:35;;;;;;;1.55;1.38;;;26.40;49.20;;;;;;5046123;28;20055;-61
2022/07/07 01:09:03;;;;;;;1.95;1.50;;;26.40;49.80;;;;;;5046519;28;20383;-61
2022/07/07 01:11:49;;;;;;;2.88;1.80;;;26.40;49.20;;;;;;5044553;28;20478;-61
2022/07/07 01:14:17;;;;;;;1.92;1.75;;;26.40;49.20;;;;;;5044660;28;20111;-62
2022/07/07 01:16:45;;;;;;;2.67;1.90;;;26.40;49.30;;;;;;5046222;28;20049;-61
2022/07/07 01:19:13;;;;;;;2.28;2.08;;;26.40;49.20;;;;;;5045852;28;20049;-62
2022/07/07 01:22:02;;;;;;;2.50;2.15;;;26.40;49.20;;;;;;5046074;28;20477;-62
2022/07/07 01:24:30;;;;;;;2.30;1.85;;;26.30;49.20;;;;;;5046054;28;20049;-62
2022/07/07 01:27:13;;;;;;;3.67;1.92;;;26.40;49.20;;;;;;5045978;28;20053;-62
2022/07/07 01:29:44;;;;;;;3.35;2.13;;;26.30;49.20;;;;;;5046312;28;20075;-62
2022/07/07 01:32:11;;;;;;;2.10;1.85;;;26.30;49.20;;;;;;5046430;28;20045;-62
2022/07/07 01:34:44;;;;;;;2.10;1.90;;;26.30;49.30;;;;;;5046444;28;20045;-62
2022/07/07 01:37:11;;;;;;;2.72;1.73;;;26.30;49.30;;;;;;5046043;28;20438;-62
2022/07/07 01:39:40;;;;;;;1.65;1.27;;;26.30;49.30;;;;;;5046090;28;20099;-62
2022/07/07 01:42:08;;;;;;;2.00;1.80;;;26.30;49.30;;;;;;5044481;28;20106;-62
2022/07/07 01:44:37;;;;;;;3.05;2.03;;;26.30;49.30;;;;;;5028379;28;20536;-62
2022/07/07 01:47:06;;;;;;;2.13;1.90;;;26.30;49.30;;;;;;5045693;28;20384;-62
2022/07/07 01:49:33;;;;;;;1.92;1.70;;;26.30;49.30;;;;;;5045419;28;20075;-61
2022/07/07 01:52:02;;;;;;;2.30;2.10;;;26.30;49.40;;;;;;5045832;28;20126;-62
2022/07/07 01:54:31;;;;;;;2.05;1.88;;;26.30;49.30;;;;;;5044604;28;20219;-62
2022/07/07 01:56:59;;;;;;;2.20;1.70;;;26.30;49.40;;;;;;5046106;28;20052;-62
2022/07/07 01:59:26;;;;;;;3.33;1.90;;;26.30;49.40;;;;;;5045558;28;20042;-62
2022/07/07 02:01:54;;;;;;;2.00;1.65;;;26.30;49.50;;;;;;5048708;28;20049;-62
2022/07/07 02:04:21;;;;;;;2.30;2.00;;;26.30;49.40;;;;;;5049531;28;20053;-62
2022/07/07 02:06:49;;;;;;;2.72;1.83;;;26.30;49.40;;;;;;5049198;28;20049;-63
2022/07/07 02:09:16;;;;;;;1.88;1.70;;;26.30;49.50;;;;;;5048551;28;20666;-62
2022/07/07 02:11:43;;;;;;;2.15;1.98;;;26.30;49.50;;;;;;5049946;28;20045;-62
2022/07/07 02:14:11;;;;;;;1.50;1.40;;;26.30;49.50;;;;;;5049422;28;20052;-62
2022/07/07 02:16:38;;;;;;;1.80;1.48;;;26.20;49.50;;;;;;5048721;28;20076;-62
2022/07/07 02:19:07;;;;;;;1.60;1.50;;;26.20;49.50;;;;;;5048361;28;20048;-62
2022/07/07 02:21:35;;;;;;;1.55;1.40;;;26.20;49.50;;;;;;5048879;28;20045;-62
2022/07/07 02:24:03;;;;;;;2.30;1.50;;;26.20;49.50;;;;;;5048578;28;20122;-62
2022/07/07 02:26:33;;;;;;;1.67;1.58;;;26.20;49.50;;;;;;5049183;28;20049;-62
2022/07/07 02:29:04;;;;;;;1.67;1.58;;;26.20;49.50;;;;;;5047308;28;20053;-62
2022/07/07 02:31:31;;;;;;;2.03;1.55;;;26.20;49.50;;;;;;5049409;28;20216;-62
2022/07/07 02:33:58;;;;;;;1.98;1.50;;;26.20;49.50;;;;;;5047951;28;20272;-62
2022/07/07 02:36:26;;;;;;;1.92;1.52;;;26.20;49.50;;;;;;5048348;28;20110;-62
2022/07/07 02:38:53;;;;;;;1.83;1.55;;;26.20;49.50;;;;;;5049139;28;20045;-62
2022/07/07 02:41:20;;;;;;;2.95;1.63;;;26.20;50.00;;;;;;5049063;28;20417;-62
2022/07/07 02:43:47;;;;;;;2.00;1.35;;;26.20;49.50;;;;;;5048930;28;20048;-62
2022/07/07 02:46:15;;;;;;;1.80;1.55;;;26.20;49.50;;;;;;5048863;28;20045;-62
2022/07/07 02:48:42;;;;;;;1.80;1.70;;;26.20;49.50;;;;;;5048544;28;20060;-62
2022/07/07 02:51:10;;;;;;;1.85;1.55;;;26.20;49.40;;;;;;5048706;28;20440;-62
2022/07/07 02:53:37;;;;;;;2.95;1.48;;;26.30;49.50;;;;;;5048812;28;20053;-62
2022/07/07 02:56:05;;;;;;;2.25;1.33;;;26.30;49.50;;;;;;5048186;28;20083;-62
2022/07/07 02:58:32;;;;;;;2.25;1.50;;;26.20;49.40;;;;;;5048461;28;20103;-62
2022/07/07 03:01:00;;;;;;;2.03;1.85;;;26.20;49.40;;;;;;5048425;28;20275;-62
2022/07/07 03:03:27;;;;;;;1.58;1.48;;;26.20;49.40;;;;;;5048036;28;20056;-62
2022/07/07 03:05:55;;;;;;;2.33;1.58;;;26.20;49.50;;;;;;5048732;28;20320;-62
2022/07/07 03:08:23;;;;;;;1.98;1.77;;;26.20;49.50;;;;;;5048215;28;20056;-62
2022/07/07 03:10:57;;;;;;;1.42;1.33;;;26.20;49.50;;;;;;5047100;28;20106;-64
2022/07/07 03:13:24;;;;;;;2.03;1.30;;;26.20;49.50;;;;;;5046257;28;20045;-62
2022/07/07 03:15:52;;;;;;;1.63;1.42;;;26.20;49.50;;;;;;5047618;28;20107;-62
2022/07/07 03:18:20;;;;;;;1.40;1.30;;;26.20;50.10;;;;;;5046834;28;20099;-62
2022/07/07 03:20:47;;;;;;;1.65;1.55;;;26.20;49.50;;;;;;5048190;28;20444;-62
2022/07/07 03:23:14;;;;;;;1.40;1.20;;;26.20;49.50;;;;;;5048000;28;20059;-62
2022/07/07 03:25:41;;;;;;;1.20;1.10;;;26.20;49.50;;;;;;5048475;28;20079;-62
2022/07/07 03:28:09;;;;;;;1.30;1.20;;;26.30;49.50;;;;;;5047309;28;20488;-62
2022/07/07 03:30:36;;;;;;;1.77;1.63;;;26.30;49.50;;;;;;5047546;28;20049;-62
2022/07/07 03:33:04;;;;;;;1.60;1.40;;;26.30;49.50;;;;;;5042872;28;20037;-63
2022/07/07 03:35:31;;;;;;;1.85;1.40;;;26.30;49.50;;;;;;5037974;28;20536;-62
2022/07/07 03:37:58;;;;;;;1.15;1.05;;;26.30;49.40;;;;;;5045210;28;20088;-62
2022/07/07 03:40:26;;;;;;;1.83;1.30;;;26.30;49.40;;;;;;5035912;28;20076;-62
2022/07/07 03:42:53;;;;;;;1.30;1.17;;;26.30;49.30;;;;;;5032745;28;20053;-62
2022/07/07 03:45:20;;;;;;;1.30;1.08;;;26.40;49.40;;;;;;5040960;28;20087;-62
2022/07/07 03:47:50;;;;;;;1.67;1.40;;;26.30;49.30;;;;;;5047789;28;20045;-62
2022/07/07 03:50:17;;;;;;;1.73;1.08;;;26.30;49.30;;;;;;5047721;28;20057;-62
2022/07/07 03:52:44;;;;;;;1.15;1.05;;;26.40;49.30;;;;;;5046867;28;20071;-62
2022/07/07 03:55:11;;;;;;;1.88;1.30;;;26.40;49.30;;;;;;5046039;28;20059;-62
2022/07/07 03:57:39;;;;;;;0.98;0.98;;;26.40;49.20;;;;;;5046341;28;20309;-62
2022/07/07 04:00:07;;;;;;;1.13;1.10;;;26.40;49.20;;;;;;5047387;28;20516;-62
2022/07/07 04:02:35;;;;;;;1.50;1.40;;;26.40;49.20;;;;;;5047524;28;20476;-62
2022/07/07 04:05:03;;;;;;;1.25;1.15;;;26.40;49.20;;;;;;5046786;28;20602;-62
2022/07/07 04:07:33;;;;;;;2.42;1.13;;;26.40;49.10;;;;;;5047394;28;20123;-62
2022/07/07 04:10:02;;;;;;;1.23;0.77;;;26.40;49.00;;;;;;5046864;28;20563;-62
2022/07/07 04:12:29;;;;;;;2.35;1.20;;;26.50;49.10;;;;;;5046017;28;20406;-62
2022/07/07 04:14:57;;;;;;;1.73;1.63;;;26.50;49.00;;;;;;5047642;28;20044;-62
2022/07/07 04:17:24;;;;;;;1.13;1.02;;;26.50;49.00;;;;;;5046565;28;20131;-62
2022/07/07 04:19:51;;;;;;;1.30;1.20;;;26.50;48.90;;;;;;5045538;28;20088;-64
2022/07/07 04:22:19;;;;;;;1.77;1.30;;;26.60;48.90;;;;;;5046229;28;20048;-62
2022/07/07 04:24:46;;;;;;;1.80;1.20;;;26.60;48.80;;;;;;5045724;28;20160;-63
2022/07/07 04:27:13;;;;;;;1.27;1.10;;;26.60;48.70;;;;;;5043916;28;20144;-63
2022/07/07 04:29:41;;;;;;;1.08;1.08;;;26.70;48.70;;;;;;5040890;28;20049;-63
2022/07/07 04:32:09;;;;;;;1.10;1.00;;;26.70;48.60;;;;;;5047225;28;20136;-63
2022/07/07 04:34:36;;;;;;;0.90;0.90;;;26.70;48.60;;;;;;5045347;28;20263;-62
2022/07/07 04:37:03;;;;;;;1.48;1.38;;;26.80;48.50;;;;;;5026167;28;20132;-63
2022/07/07 04:39:31;;;;;;;1.40;1.10;;;26.80;48.50;;;;;;5043950;28;20131;-63
2022/07/07 04:41:58;;;;;;;0.90;0.90;;;26.80;48.40;;;;;;5039044;28;20049;-63
2022/07/07 04:44:26;;;;;;;1.23;1.20;;;26.80;48.40;;;;;;5040185;28;20095;-63
2022/07/07 04:46:53;;;;;;;1.00;1.00;;;26.80;48.30;;;;;;5041418;28;20068;-62
2022/07/07 04:49:21;;;;;;;1.20;0.95;;;26.80;48.30;;;;;;5040841;28;20056;-63
2022/07/07 04:51:48;;;;;;;1.40;1.27;;;26.90;48.30;;;;;;5042511;28;20295;-62
2022/07/07 04:54:16;;;;;;;0.90;0.90;;;26.90;48.20;;;;;;5044089;28;20115;-62
2022/07/07 04:56:43;;;;;;;1.02;0.75;;;26.90;48.10;;;;;;5042989;28;20508;-62
2022/07/07 04:59:10;;;;;;;1.30;1.20;;;26.90;48.00;;;;;;5044348;28;20041;-62
2022/07/07 05:01:38;;;;;;;1.10;1.02;;;27.00;48.10;;;;;;5025399;28;20045;-62
2022/07/07 05:04:05;;;;;;;1.25;1.20;;;27.00;48.00;;;;;;5046297;28;20051;-62
2022/07/07 05:06:33;;;;;;;1.98;0.88;;;27.00;48.00;;;;;;5046918;28;20095;-62
2022/07/07 05:09:00;;;;;;;0.95;0.90;;;27.00;48.00;;;;;;5042279;28;20041;-62
2022/07/07 05:11:28;;;;;;;1.20;1.05;;;26.90;48.10;;;;;;5038544;28;20049;-62
2022/07/07 05:13:55;;;;;;;0.70;0.70;;;26.90;48.20;;;;;;5045174;28;20040;-62
2022/07/07 05:16:22;;;;;;;0.90;0.90;;;26.80;48.40;;;;;;5047438;28;20126;-62
2022/07/07 05:18:50;;;;;;;1.20;0.90;;;26.60;48.80;;;;;;5029228;28;20045;-62
2022/07/07 05:21:17;;;;;;;1.00;1.00;;;26.40;49.20;;;;;;5045837;28;20099;-62
2022/07/07 05:23:44;;;;;;;1.17;0.95;;;26.00;49.60;;;;;;5041192;28;20180;-63
2022/07/07 05:26:12;;;;;;;1.23;1.13;;;25.80;50.00;;;;;;5041186;28;20496;-63
2022/07/07 05:28:42;;;;;;;1.23;1.00;;;25.40;49.60;;;;;;5045754;28;20083;-63
2022/07/07 05:31:12;;;;;;;1.00;1.00;;;25.10;49.50;;;;;;5045091;28;20048;-64
2022/07/07 05:33:40;;;;;;;1.02;1.02;;;24.70;49.10;;;;;;5036473;28;20440;-64
2022/07/07 05:36:08;;;;;;;1.05;1.05;;;24.30;49.10;;;;;;5039855;28;20056;-64
2022/07/07 05:38:35;;;;;;;0.80;0.80;;;23.90;49.20;;;;;;5043347;28;20048;-64
2022/07/07 05:41:03;;;;;;;1.15;1.05;;;23.60;48.80;;;;;;5043952;28;20417;-64
2022/07/07 05:43:30;;;;;;;1.00;1.00;;;23.20;48.90;;;;;;5042368;28;20057;-64
2022/07/07 05:45:59;;;;;;;1.13;1.13;;;22.90;49.40;;;;;;5042975;28;20049;-64
2022/07/07 05:48:26;;;;;;;1.00;1.00;;;22.60;49.20;;;;;;5043235;28;20075;-64
2022/07/07 05:50:53;;;;;;;2.53;1.27;;;22.40;49.50;;;;;;5045569;28;20040;-64
2022/07/07 05:53:21;;;;;;;1.08;1.05;;;22.10;49.60;;;;;;5043144;28;20045;-64
2022/07/07 05:55:48;;;;;;;1.40;1.30;;;21.90;49.90;;;;;;5074830;28;20041;-64
2022/07/07 05:58:17;;;;;;;1.70;1.60;;;21.70;50.30;;;;;;5045533;28;20494;-64
2022/07/07 06:00:44;;;;;;;1.40;1.30;;;21.50;50.80;;;;;;5063066;28;20037;-64
2022/07/07 06:03:11;;;;;;;1.20;1.20;;;21.30;51.30;;;;;;5046450;28;20509;-64
2022/07/07 06:05:38;;;;;;;1.50;1.40;;;21.20;51.70;;;;;;5044607;28;20079;-63
2022/07/07 06:08:06;;;;;;;3.60;1.65;;;21.10;52.30;;;;;;5040455;28;20053;-63
2022/07/07 06:10:34;;;;;;;2.88;1.75;;;21.00;52.60;;;;;;5048469;28;20075;-63
2022/07/07 06:13:02;;;;;;;2.38;2.28;;;21.00;53.10;;;;;;5047585;28;20118;-65
2022/07/07 06:15:33;;;;;;;1.95;1.85;;;20.90;53.50;;;;;;5044922;28;20106;-63
2022/07/07 06:18:01;;;;;;;2.33;1.98;;;21.00;54.10;;;;;;5046681;28;20056;-63
2022/07/07 06:20:37;;;;;;;2.58;2.38;;;20.90;54.30;;;;;;5043852;28;20401;-63
2022/07/07 06:23:05;;;;;;;2.22;2.13;;;21.00;54.40;;;;;;5047079;28;20566;-64
2022/07/07 06:25:33;;;;;;;2.38;2.25;;;21.00;54.90;;;;;;5045177;28;20064;-64
2022/07/07 06:28:00;;;;;;;2.13;1.98;;;21.00;54.90;;;;;;5046899;28;20051;-64
2022/07/07 06:30:27;;;;;;;2.75;2.53;;;21.00;55.10;;;;;;5042255;28;20124;-63
2022/07/07 06:32:55;;;;;;;2.17;2.08;;;21.00;55.50;;;;;;5048422;28;20045;-64
2022/07/07 06:35:26;;;;;;;3.35;2.38;;;21.10;55.80;;;;;;5043238;28;20088;-63
2022/07/07 06:37:53;;;;;;;1.95;1.85;;;21.10;55.80;;;;;;5045914;28;20073;-64
2022/07/07 06:40:21;;;;;;;2.20;2.00;;;21.20;56.10;;;;;;5047397;28;20113;-63
2022/07/07 06:42:48;;;;;;;2.28;2.08;;;21.30;55.90;;;;;;5056715;28;20285;-63
2022/07/07 06:45:15;;;;;;;2.08;1.98;;;21.40;55.70;;;;;;5045715;28;20102;-64
2022/07/07 06:47:43;;;;;;;4.47;2.67;;;21.40;55.40;;;;;;5048389;28;20075;-64
2022/07/07 06:50:10;;;;;;;1.90;1.80;;;21.50;55.00;;;;;;5047025;28;20090;-64
2022/07/07 06:52:37;;;;;;;2.70;1.73;;;21.60;54.80;;;;;;5046946;28;20290;-64
2022/07/07 06:55:05;;;;;;;1.80;1.70;;;21.50;54.30;;;;;;5050292;28;20107;-64
2022/07/07 06:57:37;;;;;;;2.75;2.33;;;21.60;54.20;;;;;;5056680;28;20434;-64
2022/07/07 07:00:06;;;;;;;1.90;1.80;;;21.60;54.10;;;;;;5042564;28;20094;-63
2022/07/07 07:02:33;;;;;;;3.65;1.80;;;21.60;54.10;;;;;;5043371;28;20041;-63
2022/07/07 07:05:00;;;;;;;2.03;1.92;;;21.60;54.10;;;;;;5047206;28;20052;-64
2022/07/07 07:07:30;;;;;;;1.88;1.80;;;21.60;54.10;;;;;;5027353;28;20041;-63
2022/07/07 07:09:57;;;;;;;5.85;1.98;;;21.60;54.10;;;;;;5041784;28;20182;-64
2022/07/07 07:12:24;;;;;;;1.90;1.80;;;21.70;54.10;;;;;;5052391;28;20094;-64
2022/07/07 07:14:51;;;;;;;1.90;1.80;;;21.70;54.70;;;;;;5046739;28;20044;-64
2022/07/07 07:17:20;;;;;;;1.80;1.70;;;21.70;54.40;;;;;;5040989;28;20057;-65
2022/07/07 07:19:47;;;;;;;2.05;1.95;;;21.60;54.80;;;;;;5026626;28;20437;-65
2022/07/07 07:22:14;;;;;;;2.30;2.10;;;21.60;54.90;;;;;;5041933;28;20048;-64
2022/07/07 07:24:42;;;;;;;1.90;1.80;;;21.60;55.00;;;;;;5040765;28;20494;-64
2022/07/07 07:27:09;;;;;;;1.70;1.60;;;21.70;54.90;;;;;;5040944;28;20474;-64
2022/07/07 07:29:36;;;;;;;1.58;1.50;;;21.80;54.80;;;;;;5042826;28;20049;-64
2022/07/07 07:32:05;;;;;;;1.83;1.73;;;21.80;54.70;;;;;;5039304;28;20048;-65
2022/07/07 07:34:32;;;;;;;1.67;1.58;;;21.90;54.50;;;;;;5047290;28;20072;-64
2022/07/07 07:37:00;;;;;;;2.00;1.90;;;21.90;54.50;;;;;;5041737;28;20057;-65
2022/07/07 07:39:27;;;;;;;2.08;1.90;;;21.90;54.60;;;;;;5045583;28;20045;-65
2022/07/07 07:41:54;;;;;;;2.00;1.90;;;22.00;54.50;;;;;;5043817;28;20470;-64
2022/07/07 07:47:08;;;;;;;2.03;1.85;;;22.00;54.60;;;;;;5046445;28;20041;-65
2022/07/07 07:49:37;;;;;;;1.83;1.73;;;22.10;54.60;;;;;;5047442;28;20052;-64
2022/07/07 07:52:06;;;;;;;2.35;2.15;;;22.10;54.70;;;;;;5044347;28;20080;-65
2022/07/07 07:54:33;;;;;;;2.45;2.25;;;22.10;54.70;;;;;;5049282;28;20539;-65
2022/07/07 07:57:00;;;;;;;2.28;2.13;;;22.10;54.70;;;;;;5053574;28;20099;-65
2022/07/07 07:59:28;;;;;;;2.20;2.00;;;22.10;54.60;;;;;;5045214;28;20481;-65
2022/07/07 08:01:55;;;;;;;1.95;1.85;;;22.00;54.60;;;;;;5043013;28;20041;-64
2022/07/07 08:04:22;;;;;;;2.42;1.98;;;22.00;54.60;;;;;;5041685;28;20052;-63
2022/07/07 08:06:50;;;;;;;2.10;1.90;;;22.00;54.80;;;;;;5036869;28;20131;-63
2022/07/07 08:09:18;;;;;;;3.00;1.90;;;22.00;54.80;;;;;;5032432;28;20049;-64
2022/07/07 08:11:45;;;;;;;2.60;2.00;;;22.00;54.60;;;;;;5037978;28;20413;-63
2022/07/07 08:14:12;;;;;;;2.00;1.90;;;22.00;54.60;;;;;;5038106;28;20111;-65
2022/07/07 08:16:40;;;;;;;2.80;2.13;;;22.00;54.60;;;;;;5039611;28;20700;-63
2022/07/07 08:19:07;;;;;;;2.28;2.10;;;21.90;54.50;;;;;;5042825;28;20044;-65
2022/07/07 08:21:34;;;;;;;2.00;1.80;;;21.80;54.70;;;;;;5042961;28;20147;-62
2022/07/07 08:24:02;;;;;;;1.95;1.77;;;21.70;54.70;;;;;;5039529;28;20572;-63
2022/07/07 08:26:29;;;;;;;2.55;2.35;;;21.60;54.90;;;;;;5039701;28;20491;-63
2022/07/07 08:28:57;;;;;;;1.80;1.70;;;21.60;55.20;;;;;;5044761;28;20049;-64
2022/07/07 08:31:24;;;;;;;1.92;1.70;;;21.50;55.40;;;;;;5038522;28;20099;-63
2022/07/07 08:33:52;;;;;;;2.40;2.20;;;21.40;55.90;;;;;;5041709;28;20128;-64
2022/07/07 08:36:19;;;;;;;2.33;2.13;;;21.40;56.00;;;;;;5040928;28;20053;-63
2022/07/07 08:38:46;;;;;;;2.53;2.33;;;21.40;56.30;;;;;;5038007;28;20080;-63
2022/07/07 08:41:15;;;;;;;13.10;2.33;;;21.30;56.50;;;;;;5037047;28;20048;-65
2022/07/07 08:43:43;;;;;;;3.15;2.00;;;21.30;56.80;;;;;;5039878;28;20041;-63
2022/07/07 08:46:10;;;;;;;3.40;1.95;;;21.30;57.00;;;;;;5039224;28;20049;-63
2022/07/07 08:48:39;;;;;;;2.30;2.10;;;21.30;57.10;;;;;;5043202;28;20041;-64
2022/07/07 08:51:08;;;;;;;3.28;2.00;;;21.30;57.10;;;;;;5035733;28;20061;-64
2022/07/07 08:53:37;;;;;;;2.13;2.03;;;21.30;57.10;;;;;;5039671;28;20052;-64
2022/07/07 08:56:07;;;;;;;2.55;2.35;;;21.30;57.60;;;;;;5043329;28;20049;-63
2022/07/07 08:58:35;;;;;;;3.30;1.98;;;21.30;56.90;;;;;;5038035;28;20391;-64
2022/07/07 09:01:24;;;;;;;23.67;3.42;;;21.30;56.80;;;;;;5042892;28;20552;-66
2022/07/07 09:03:51;;;;;;;14.10;3.22;;;21.20;56.60;;;;;;5041666;28;20071;-64
2022/07/07 09:06:18;;;;;;;10.63;2.45;;;21.30;57.60;;;;;;5046384;28;20460;-64
2022/07/07 09:08:50;;;;;;;6.85;2.47;;;21.30;57.70;;;;;;5043744;28;20049;-63
2022/07/07 09:11:37;;;;;;;12.88;2.63;;;21.30;56.90;;;;;;5045108;28;20053;-63
2022/07/07 09:14:12;;;;;;;4.80;2.38;;;21.40;56.60;;;;;;5039847;28;20037;-62
2022/07/07 09:16:40;;;;;;;3.97;2.25;;;21.40;56.20;;;;;;5038742;28;20078;-62
2022/07/07 09:19:20;;;;;;;4.93;2.40;;;21.50;56.00;;;;;;5038645;28;20057;-63
2022/07/07 09:21:48;;;;;;;4.70;2.70;;;21.50;55.60;;;;;;5048771;28;20043;-61
2022/07/07 09:24:19;;;;;;;1.98;1.88;;;21.50;55.30;;;;;;5040226;28;20081;-62
2022/07/07 09:26:52;;;;;;;3.20;2.10;;;21.50;55.10;;;;;;5046025;28;20436;-62
2022/07/07 09:29:21;;;;;;;4.82;1.77;;;21.50;55.00;;;;;;5042114;28;20053;-61
2022/07/07 09:32:05;;;;;;;4.40;1.52;;;21.50;54.60;;;;;;5039747;28;20072;-62
2022/07/07 09:34:35;;;;;;;3.72;2.10;;;21.50;54.60;;;;;;5041388;28;20072;-61
2022/07/07 09:39:57;;;;;;;6.55;2.03;;;21.40;54.20;;;;;;5039997;28;20775;-62
2022/07/07 09:42:39;;;;;;;4.30;1.58;;;21.40;54.30;;;;;;5038729;28;20075;-61
2022/07/07 09:45:09;;;;;;;4.28;1.80;;;21.40;54.20;;;;;;5041212;28;20420;-61
2022/07/07 09:47:37;;;;;;;4.05;1.40;;;21.40;54.00;;;;;;5047302;28;20044;-63
2022/07/07 09:50:13;;;;;;;3.50;1.63;;;21.30;53.30;;;;;;5045754;28;20049;-63
2022/07/07 09:52:47;;;;;;;1.88;1.58;;;21.20;53.50;;;;;;5046897;28;20128;-66
2022/07/07 09:55:15;;;;;;;41.10;10.95;;;21.20;53.60;;;;;;5043653;28;20332;-61
2022/07/07 09:57:44;;;;;;;10.93;4.30;;;21.50;54.00;;;;;;5046312;28;20124;-61
2022/07/07 10:00:13;;;;;;;13.35;2.90;;;21.60;53.30;;;;;;5041536;28;20055;-61
2022/07/07 10:02:42;;;;;;;10.45;2.83;;;21.60;53.30;;;;;;5041794;28;20386;-61
2022/07/07 10:05:09;;;;;;;6.07;2.65;;;21.50;53.00;;;;;;5045467;28;20079;-62
2022/07/07 10:07:37;;;;;;;8.43;3.35;;;21.50;53.00;;;;;;5044594;28;20036;-63
2022/07/07 10:10:08;;;;;;;8.38;2.80;;;21.50;53.10;;;;;;5034157;28;20781;-63
2022/07/07 10:12:44;;;;;;;12.13;3.13;;;21.50;52.90;;;;;;5042955;28;20053;-63
2022/07/07 10:15:12;;;;;;;6.20;2.60;;;21.50;52.90;;;;;;5043201;28;20045;-63
2022/07/07 10:17:41;;;;;;;7.82;2.67;;;21.50;52.70;;;;;;5039839;28;20049;-63
2022/07/07 10:20:09;;;;;;;4.07;2.80;;;21.50;52.50;;;;;;5043701;28;20413;-63
2022/07/07 10:22:37;;;;;;;5.30;2.00;;;21.50;52.50;;;;;;5043303;28;20504;-62
2022/07/07 10:25:09;;;;;;;3.60;1.98;;;21.50;52.30;;;;;;5045739;28;20048;-62
2022/07/07 10:27:40;;;;;;;5.10;2.20;;;21.40;52.60;;;;;;5045755;28;20234;-62
2022/07/07 10:30:08;;;;;;;5.63;2.60;;;21.40;52.60;;;;;;5044213;28;20068;-63
2022/07/07 10:32:49;;;;;;;4.53;2.25;;;21.40;52.60;;;;;;5047670;28;20065;-62
2022/07/07 10:35:17;;;;;;;6.70;2.53;;;21.40;52.70;;;;;;5050078;28;20048;-62
2022/07/07 10:37:49;;;;;;;2.88;2.20;;;21.40;52.60;;;;;;5047859;28;20460;-62
2022/07/07 10:40:28;;;;;;;2.60;2.40;;;21.40;52.60;;;;;;5044359;28;20504;-63
2022/07/07 10:43:14;;;;;;;2.85;2.00;;;21.40;52.50;;;;;;5046332;28;20052;-62
2022/07/07 10:45:46;;;;;;;8.75;2.20;;;21.40;52.50;;;;;;5038330;28;20064;-63
2022/07/07 10:48:55;;;;;;;4.40;2.75;;;21.50;52.40;;;;;;5045358;28;20057;-63
2022/07/07 10:51:25;;;;;;;2.20;1.88;;;21.50;52.10;;;;;;5043727;28;20049;-63
2022/07/07 10:54:06;;;;;;;5.45;1.92;;;21.50;52.30;;;;;;5041093;28;20417;-63
2022/07/07 10:57:13;;;;;;;1.95;1.77;;;21.50;51.90;;;;;;5048288;28;20139;-63
2022/07/07 11:00:06;;;;;;;2.08;1.80;;;21.50;51.80;;;;;;5039888;28;20053;-63
2022/07/07 11:02:44;;;;;;;2.38;2.28;;;21.50;52.20;;;;;;5042673;28;20761;-63
2022/07/07 11:05:32;;;;;;;2.67;2.10;;;21.50;52.10;;;;;;5046787;28;20045;-61
2022/07/07 11:08:06;;;;;;;2.22;2.05;;;21.50;52.10;;;;;;5041483;28;20041;-61
2022/07/07 11:10:49;;;;;;;2.63;2.00;;;21.60;52.30;;;;;;5043095;28;20056;-61
2022/07/07 11:13:32;;;;;;;2.25;2.05;;;21.60;52.40;;;;;;5047072;28;20044;-62
2022/07/07 11:16:21;;;;;;;2.20;1.98;;;21.60;52.40;;;;;;5044217;28;20049;-61
2022/07/07 11:19:02;;;;;;;1.83;1.55;;;21.60;52.70;;;;;;5043377;28;20045;-61
2022/07/07 11:21:33;;;;;;;;;;;21.60;52.80;;;;;;5040615;28;20103;-62
2022/07/07 11:24:02;;;;;;;;;;;21.70;52.50;;;;;;5046278;28;19928;-61
2022/07/07 11:26:29;;;;;;;1.67;1.58;;;21.70;52.10;;;;;;5049064;28;19939;-62
2022/07/07 11:28:58;;;;;;;2.45;2.00;;;21.80;52.40;;;;;;5047695;28;20045;-62
2022/07/07 11:31:28;;;;;;;1.90;1.80;;;21.90;52.10;;;;;;5040245;28;20065;-62
2022/07/07 11:33:57;;;;;;;;;;;22.00;51.70;;;;;;5035790;28;20422;-62
2022/07/07 11:36:28;;;;;;;3.10;1.70;;;21.90;51.30;;;;;;5039354;28;19925;-62
2022/07/07 11:39:02;;;;;;;2.15;2.05;;;21.90;51.30;;;;;;5041766;28;20048;-61
2022/07/07 11:41:44;;;;;;;1.98;1.80;;;21.90;51.30;;;;;;5040465;28;20056;-61
2022/07/07 11:44:20;;;;;;;1.50;1.40;;;21.90;51.20;;;;;;5041944;28;20041;-61
2022/07/07 11:46:50;;;;;;;1.75;1.50;;;21.80;51.10;;;;;;5042273;28;20063;-62
2022/07/07 11:49:19;;;;;;;1.73;1.63;;;21.80;50.90;;;;;;5041845;28;20103;-60
2022/07/07 11:51:47;;;;;;;1.83;1.73;;;21.80;51.30;;;;;;5042538;28;20045;-60
2022/07/07 11:54:15;;;;;;;1.75;1.65;;;21.80;50.90;;;;;;5042198;28;20068;-60
2022/07/07 11:56:42;;;;;;;2.20;1.20;;;21.80;51.90;;;;;;5040559;28;20135;-61
2022/07/07 11:59:09;;;;;;;1.83;1.60;;;21.80;52.00;;;;;;5044052;28;20045;-61
2022/07/07 12:01:38;;;;;;;1.50;1.40;;;21.80;51.90;;;;;;5044734;28;20083;-61
2022/07/07 12:04:22;;;;;;;2.97;1.40;;;21.80;51.90;;;;;;5038563;28;20051;-61
2022/07/07 12:06:51;;;;;;;3.30;1.35;;;21.80;51.70;;;;;;5040820;28;20119;-63
2022/07/07 12:09:19;;;;;;;1.73;1.65;;;21.80;51.70;;;;;;5039307;28;20103;-61
2022/07/07 12:11:47;;;;;;;1.48;1.38;;;21.80;51.50;;;;;;5045901;28;20140;-61
2022/07/07 12:14:15;;;;;;;1.63;1.52;;;21.80;51.60;;;;;;5041574;28;20697;-61
2022/07/07 12:16:48;;;;;;;2.00;1.90;;;21.90;51.30;;;;;;5039270;28;20045;-61
2022/07/07 12:19:17;;;;;;;1.60;1.30;;;21.90;51.30;;;;;;5035047;28;20545;-61
2022/07/07 12:21:50;;;;;;;1.30;1.25;;;21.90;51.30;;;;;;5038673;28;20045;-62
2022/07/07 12:24:22;;;;;;;2.97;1.50;;;21.90;51.30;;;;;;5049462;28;20045;-64
2022/07/07 12:27:20;;;;;;;1.05;1.05;;;21.90;51.30;;;;;;5041853;28;20048;-62
2022/07/07 12:30:06;;;;;;;1.45;1.35;;;22.00;51.30;;;;;;5040948;28;20291;-62
2022/07/07 12:32:33;;;;;;;1.63;1.52;;;22.00;51.30;;;;;;5039194;28;20045;-62
2022/07/07 12:35:00;;;;;;;1.42;1.30;;;22.10;51.30;;;;;;5039339;28;20049;-62
2022/07/07 12:37:42;;;;;;;1.25;1.17;;;22.10;51.10;;;;;;5039964;28;20438;-60
2022/07/07 12:40:12;;;;;;;1.48;1.23;;;22.10;51.10;;;;;;5038223;28;20477;-64
2022/07/07 12:42:44;;;;;;;1.48;1.40;;;22.10;51.40;;;;;;5023087;28;20290;-62
2022/07/07 12:45:17;;;;;;;1.33;1.25;;;22.10;51.40;;;;;;5037992;28;20056;-62
2022/07/07 12:47:53;;;;;;;1.48;1.30;;;22.10;51.40;;;;;;5037191;28;20126;-62
2022/07/07 12:50:22;;;;;;;1.33;1.20;;;22.10;51.30;;;;;;5040138;28;20507;-63
2022/07/07 12:53:02;;;;;;;1.00;1.00;;;22.20;51.50;;;;;;5041539;28;20134;-63
2022/07/07 12:55:42;;;;;;;1.23;1.23;;;22.10;51.50;;;;;;5037275;28;20049;-63
2022/07/07 12:58:22;;;;;;;1.23;1.13;;;22.10;51.50;;;;;;5047487;28;20452;-64
2022/07/07 13:01:03;;;;;;;1.35;1.10;;;22.20;51.60;;;;;;5047484;28;20178;-62
2022/07/07 13:03:31;;;;;;;1.58;1.35;;;22.20;51.70;;;;;;5042001;28;20060;-62
2022/07/07 13:06:00;;;;;;;1.20;1.10;;;22.20;52.00;;;;;;5041905;28;20106;-62
2022/07/07 13:08:28;;;;;;;1.25;1.15;;;22.30;51.90;;;;;;5034590;28;20044;-62